Time;durP1;ratioP1;P1;durP2;ratioP2;P2;SDS_P1;SDS_P2;PMS_P1;PMS_P2;Temp;Humidity;BMP_temperature;BMP_pressure;BME280_temperature;BME280_humidity;BME280_pressure;Samples;Min_cycle;Max_cycle;Signal;HPM_P1;HPM_P2
2022/01/18 00:02:24;;;;;;;27.50;12.40;;;;;;;5.53;100.00;99616.81;5035172;28;20329;-61
2022/01/18 00:04:50;;;;;;;18.52;7.03;;;;;;;6.12;100.00;99612.75;5035332;28;20793;-60
2022/01/18 00:07:16;;;;;;;19.88;8.48;;;;;;;6.39;100.00;99616.28;5035830;28;20057;-59
2022/01/18 00:09:41;;;;;;;23.27;9.02;;;;;;;5.80;100.00;99614.34;5036120;28;20402;-59
2022/01/18 00:23:16;;;;;;;18.60;6.78;;;;;;;5.94;100.00;99640.31;5036364;28;20086;-59
2022/01/18 00:25:47;;;;;;;18.67;7.47;;;;;;;6.21;100.00;99641.28;5035602;28;20886;-59
2022/01/18 00:28:13;;;;;;;21.27;7.85;;;;;;;5.76;100.00;99637.66;5036447;28;20391;-62
2022/01/18 00:33:23;;;;;;;24.23;9.68;;;;;;;5.87;100.00;99635.97;5036320;28;20108;-59
2022/01/18 00:35:57;;;;;;;18.33;8.03;;;;;;;5.93;100.00;99641.16;5035857;28;20441;-60
2022/01/18 00:38:32;;;;;;;19.73;7.88;;;;;;;5.93;100.00;99653.25;5036523;28;20255;-61
2022/01/18 00:40:59;;;;;;;25.45;10.68;;;;;;;5.74;100.00;99660.09;5035680;28;20301;-58
2022/01/18 00:43:25;;;;;;;21.85;8.40;;;;;;;5.83;100.00;99667.91;5036174;28;20295;-58
2022/01/18 00:45:51;;;;;;;22.15;9.25;;;;;;;5.90;100.00;99661.91;5035781;28;20033;-60
2022/01/18 00:48:17;;;;;;;17.02;6.78;;;;;;;6.66;100.00;99672.53;5035925;28;20502;-59
2022/01/18 00:50:46;;;;;;;13.05;5.88;;;;;;;6.64;100.00;99672.50;5035503;28;20032;-60
2022/01/18 00:53:15;;;;;;;20.42;8.70;;;;;;;5.94;100.00;99676.59;5035711;28;20502;-59
2022/01/18 00:56:04;;;;;;;25.20;10.90;;;;;;;5.22;100.00;99679.59;5036106;28;20044;-58
2022/01/18 00:58:29;;;;;;;26.50;10.88;;;;;;;5.29;100.00;99684.81;5040383;28;20033;-58
2022/01/18 01:00:54;;;;;;;20.95;8.40;;;;;;;5.55;100.00;99685.88;5039309;28;20045;-59
2022/01/18 01:03:20;;;;;;;28.60;11.25;;;;;;;5.31;100.00;99688.28;5040137;28;20504;-58
2022/01/18 01:05:45;;;;;;;18.25;7.15;;;;;;;6.34;100.00;99697.50;5039542;28;20036;-61
2022/01/18 01:08:11;;;;;;;22.05;9.15;;;;;;;5.84;100.00;99694.66;5040071;28;20269;-59
2022/01/18 01:10:37;;;;;;;24.30;10.73;;;;;;;5.64;100.00;99702.31;5039134;28;20743;-58
2022/01/18 01:13:03;;;;;;;28.23;12.23;;;;;;;5.25;100.00;99703.75;5040181;28;20123;-60
2022/01/18 01:15:31;;;;;;;26.27;10.73;;;;;;;6.10;100.00;99703.47;5039340;28;20461;-60
2022/01/18 01:18:30;;;;;;;28.33;12.40;;;;;;;5.62;100.00;99710.06;5039819;28;20033;-58
2022/01/18 01:32:25;;;;;;;24.33;8.52;;;;;;;5.26;100.00;99721.03;5038643;28;20094;-60
2022/01/18 01:45:19;;;;;;;17.77;5.20;;;;;;;5.81;100.00;99718.81;5038642;28;20029;-59
2022/01/18 01:47:49;;;;;;;29.52;7.20;;;;;;;4.78;100.00;99724.06;5039156;28;20009;-58
2022/01/18 01:50:18;;;;;;;23.73;6.55;;;;;;;4.69;100.00;99729.13;5038632;28;20572;-58
2022/01/18 01:52:45;;;;;;;18.27;5.68;;;;;;;4.97;100.00;99719.91;5039484;28;20098;-60
2022/01/18 01:55:11;;;;;;;19.02;5.55;;;;;;;4.86;100.00;99718.09;5038153;28;20526;-60
2022/01/18 01:57:37;;;;;;;16.30;5.18;;;;;;;5.49;100.00;99722.06;5038893;28;20422;-59
2022/01/18 02:00:09;;;;;;;15.23;5.18;;;;;;;5.72;100.00;99719.63;5038919;28;20033;-59
2022/01/18 02:02:34;;;;;;;;;;;;;;;5.21;100.00;99715.81;5038643;28;20056;-58
2022/01/18 02:05:00;;;;;;;20.17;6.10;;;;;;;4.96;100.00;99706.97;5039470;28;19917;-58
2022/01/18 02:07:25;;;;;;;14.68;5.07;;;;;;;5.08;100.00;99701.91;5037969;28;20045;-59
2022/01/18 02:09:50;;;;;;;23.05;6.72;;;;;;;5.28;100.00;99685.69;5038961;28;20047;-58
2022/01/18 02:12:17;;;;;;;20.33;6.57;;;;;;;5.20;100.00;99694.25;5038437;28;20041;-60
2022/01/18 02:14:47;;;;;;;20.35;7.25;;;;;;;5.15;100.00;99690.75;5039039;28;20044;-59
2022/01/18 02:22:40;;;;;;;22.52;6.78;;;;;;;5.28;100.00;99711.56;5038119;28;20086;-58
2022/01/18 02:25:06;;;;;;;19.90;6.70;;;;;;;4.73;100.00;99710.19;5037396;28;20029;-60
2022/01/18 02:27:31;;;;;;;25.00;7.57;;;;;;;4.79;100.00;99702.50;5038501;28;20036;-59
2022/01/18 02:29:56;;;;;;;21.48;7.13;;;;;;;4.92;100.00;99706.06;5038698;28;20135;-58
2022/01/18 02:32:22;;;;;;;24.90;7.20;;;;;;;5.15;100.00;99690.75;5037677;28;20059;-59
2022/01/18 02:34:47;;;;;;;17.40;6.63;;;;;;;4.89;100.00;99690.53;5038893;28;20024;-58
2022/01/18 02:37:14;;;;;;;19.60;6.30;;;;;;;5.26;100.00;99696.03;5037851;28;20033;-58
2022/01/18 02:39:40;;;;;;;22.38;8.70;;;;;;;5.11;100.00;99707.13;5038594;28;20032;-59
2022/01/18 02:42:07;;;;;;;19.08;6.75;;;;;;;5.37;100.00;99696.97;5037692;28;20047;-59
2022/01/18 02:44:35;;;;;;;23.08;9.30;;;;;;;5.17;100.00;99695.94;5038090;28;20112;-58
2022/01/18 02:47:00;;;;;;;24.05;8.50;;;;;;;4.88;100.00;99693.09;5037767;28;20049;-58
2022/01/18 02:49:27;;;;;;;26.70;9.50;;;;;;;4.66;100.00;99687.72;5038124;28;20319;-58
2022/01/18 02:51:54;;;;;;;19.63;8.18;;;;;;;5.18;100.00;99690.78;5024737;28;20049;-59
2022/01/18 02:54:20;;;;;;;19.38;7.38;;;;;;;4.99;100.00;99691.47;5038215;28;20074;-58
2022/01/18 02:56:58;;;;;;;27.08;9.57;;;;;;;5.05;100.00;99691.53;5037791;28;20805;-57
2022/01/18 02:59:43;;;;;;;22.35;8.77;;;;;;;5.21;100.00;99680.44;5037010;28;20086;-57
2022/01/18 03:05:01;;;;;;;21.67;7.50;;;;;;;5.25;100.00;99693.41;5036410;28;20044;-59
2022/01/18 03:07:27;;;;;;;30.20;9.38;;;;;;;4.96;100.00;99682.00;5033879;28;20391;-58
2022/01/18 03:09:52;;;;;;;21.88;8.10;;;;;;;5.07;100.00;99686.38;5035446;28;20099;-58
2022/01/18 03:12:17;;;;;;;23.02;8.55;;;;;;;5.13;100.00;99701.97;5035680;28;20392;-58
2022/01/18 03:14:43;;;;;;;21.60;7.93;;;;;;;5.68;100.00;99698.88;5037654;28;20020;-58
2022/01/18 03:17:08;;;;;;;24.73;9.60;;;;;;;5.55;100.00;99703.09;5037228;28;20116;-57
2022/01/18 03:19:34;;;;;;;20.83;8.38;;;;;;;5.27;100.00;99699.47;5036409;28;20024;-60
2022/01/18 03:21:59;;;;;;;21.45;8.70;;;;;;;4.97;100.00;99703.53;5036530;28;20258;-59
2022/01/18 03:29:34;;;;;;;18.33;6.93;;;;;;;5.55;100.00;99718.63;5037657;28;20200;-58
2022/01/18 03:32:00;;;;;;;24.98;8.70;;;;;;;5.48;100.00;99715.16;5036619;28;20032;-58
2022/01/18 03:34:26;;;;;;;22.33;8.40;;;;;;;5.31;100.00;99719.31;5037465;28;20044;-58
2022/01/18 03:36:52;;;;;;;24.00;9.75;;;;;;;5.36;100.00;99722.81;5036384;28;20063;-59
2022/01/18 03:39:18;;;;;;;24.85;9.35;;;;;;;5.00;100.00;99729.44;5037038;28;20033;-58
2022/01/18 03:41:43;;;;;;;20.23;7.97;;;;;;;5.40;100.00;99732.34;5036602;28;20044;-58
2022/01/18 03:44:09;;;;;;;20.40;7.63;;;;;;;5.48;100.00;99727.25;5037288;28;20025;-57
2022/01/18 03:46:36;;;;;;;21.63;8.45;;;;;;;5.44;100.00;99736.72;5036615;28;20047;-58
2022/01/18 03:49:05;;;;;;;13.77;5.10;;;;;;;5.75;100.00;99737.78;5037066;28;20422;-58
2022/01/18 03:51:31;;;;;;;21.10;8.00;;;;;;;5.08;100.00;99742.44;5036559;28;20044;-58
2022/01/18 03:53:56;;;;;;;13.90;5.28;;;;;;;5.34;100.00;99740.06;5037686;28;20553;-60
2022/01/18 03:56:22;;;;;;;21.63;8.18;;;;;;;4.93;100.00;99733.69;5036361;28;20033;-57
2022/01/18 03:58:47;;;;;;;22.83;7.68;;;;;;;5.32;100.00;99737.47;5036618;28;20150;-60
2022/01/18 04:01:12;;;;;;;18.08;6.95;;;;;;;5.90;100.00;99730.94;5036080;28;20502;-60
2022/01/18 04:03:38;;;;;;;15.88;5.95;;;;;;;5.95;100.00;99730.13;5036840;28;20090;-59
2022/01/18 04:06:03;;;;;;;21.17;7.13;;;;;;;5.77;100.00;99724.81;5036181;28;20086;-58
2022/01/18 04:08:28;;;;;;;16.58;6.43;;;;;;;5.78;100.00;99731.75;5037075;28;20040;-57
2022/01/18 04:10:54;;;;;;;22.92;8.50;;;;;;;5.42;100.00;99738.38;5035910;28;20048;-59
2022/01/18 04:13:19;;;;;;;17.00;7.25;;;;;;;5.19;100.00;99733.91;5036667;28;20082;-57
2022/01/18 04:15:45;;;;;;;14.55;5.70;;;;;;;5.63;100.00;99726.47;5036100;28;20067;-58
2022/01/18 04:18:28;;;;;;;17.65;6.40;;;;;;;5.56;100.00;99726.41;5037109;28;20041;-58
2022/01/18 04:28:57;;;;;;;16.10;6.53;;;;;;;4.68;100.00;99726.53;5036391;28;20029;-58
2022/01/18 04:31:24;;;;;;;20.17;7.45;;;;;;;4.88;100.00;99729.31;5037480;28;20324;-59
2022/01/18 04:33:51;;;;;;;18.25;5.95;;;;;;;5.41;100.00;99729.75;5040231;28;20039;-59
2022/01/18 04:36:16;;;;;;;19.08;6.18;;;;;;;5.03;100.00;99722.53;5039078;28;20328;-58
2022/01/18 04:38:42;;;;;;;21.17;7.10;;;;;;;5.18;100.00;99734.78;5040442;28;20372;-60
2022/01/18 04:41:12;;;;;;;23.40;8.40;;;;;;;5.27;100.00;99738.28;5039651;28;20110;-58
2022/01/18 04:44:14;;;;;;;26.10;8.75;;;;;;;4.98;100.00;99734.59;5040041;28;20238;-58
2022/01/18 04:49:23;;;;;;;23.00;7.70;;;;;;;5.02;100.00;99738.06;5039992;28;20094;-57
2022/01/18 04:51:48;;;;;;;23.45;8.27;;;;;;;4.89;100.00;99728.44;5039435;28;20357;-58
2022/01/18 04:54:15;;;;;;;25.02;9.25;;;;;;;4.81;100.00;99738.72;5040722;28;20103;-60
2022/01/18 04:59:09;;;;;;;21.80;6.70;;;;;;;5.05;100.00;99740.66;5040083;28;20024;-59
2022/01/18 05:01:37;;;;;;;28.67;9.85;;;;;;;4.74;100.00;99745.56;5038956;28;20438;-60
2022/01/18 05:04:03;;;;;;;29.38;9.80;;;;;;;4.90;100.00;99750.88;5039572;28;20031;-59
2022/01/18 05:06:29;;;;;;;25.15;8.75;;;;;;;5.24;100.00;99753.75;5039626;28;20040;-58
2022/01/18 05:08:55;;;;;;;24.42;8.70;;;;;;;4.72;100.00;99749.81;5040459;28;20722;-58
2022/01/18 05:11:23;;;;;;;23.75;7.97;;;;;;;4.65;100.00;99753.22;5039522;28;20110;-59
2022/01/18 05:14:14;;;;;;;27.35;7.97;;;;;;;4.49;100.00;99753.91;5039974;28;20280;-58
2022/01/18 05:16:48;;;;;;;20.05;7.63;;;;;;;4.60;100.00;99760.06;5039265;28;20048;-58
2022/01/18 05:24:26;;;;;;;27.77;9.07;;;;;;;4.59;100.00;99768.63;5039622;28;20495;-59
2022/01/18 05:26:52;;;;;;;30.85;9.63;;;;;;;4.21;100.00;99769.06;5038639;28;20033;-59
2022/01/18 05:29:18;;;;;;;26.80;8.85;;;;;;;4.24;100.00;99776.81;5040101;28;20084;-57
2022/01/18 05:31:44;;;;;;;30.35;8.90;;;;;;;4.31;100.00;99781.22;5039245;28;20036;-59
2022/01/18 05:34:10;;;;;;;25.90;8.65;;;;;;;4.55;100.00;99777.22;5039151;28;20028;-60
2022/01/18 05:36:36;;;;;;;30.35;9.27;;;;;;;4.53;100.00;99774.59;5039043;28;20033;-58
2022/01/18 05:39:02;;;;;;;25.05;8.63;;;;;;;4.39;100.00;99777.03;5039511;28;20040;-59
2022/01/18 05:41:27;;;;;;;28.92;8.80;;;;;;;4.18;100.00;99787.09;5038364;28;20707;-58
2022/01/18 05:43:52;;;;;;;26.45;9.32;;;;;;;4.32;100.00;99789.84;5038439;28;20033;-57
2022/01/18 05:46:18;;;;;;;27.88;8.98;;;;;;;4.54;100.00;99798.72;5039019;28;20041;-58
2022/01/18 05:48:43;;;;;;;23.10;7.07;;;;;;;5.00;100.00;99799.28;5039553;28;20127;-60
2022/01/18 05:51:09;;;;;;;30.33;9.65;;;;;;;4.41;100.00;99805.47;5039035;28;20048;-58
2022/01/18 05:53:35;;;;;;;35.85;9.40;;;;;;;4.20;100.00;99806.06;5039234;28;20644;-58
2022/01/18 05:56:04;;;;;;;35.42;9.45;;;;;;;3.85;100.00;99814.16;5037012;28;20672;-58
2022/01/18 05:58:29;;;;;;;35.97;10.13;;;;;;;4.19;100.00;99812.94;5038745;28;20036;-58
2022/01/18 06:00:55;;;;;;;32.20;9.70;;;;;;;4.32;100.00;99820.84;5037868;28;20047;-59
2022/01/18 06:03:38;;;;;;;29.65;9.63;;;;;;;4.28;100.00;99822.50;5030920;28;20102;-62
2022/01/18 06:08:47;;;;;;;27.33;9.00;;;;;;;4.01;100.00;99831.63;5040764;28;20036;-61
2022/01/18 06:11:12;;;;;;;29.65;8.73;;;;;;;4.19;100.00;99820.69;5041276;28;20069;-60
2022/01/18 06:13:38;;;;;;;27.50;9.23;;;;;;;4.32;100.00;99821.72;5041746;28;20435;-58
2022/01/18 06:16:04;;;;;;;29.77;10.40;;;;;;;4.34;100.00;99816.59;5041464;28;21058;-60
2022/01/18 06:18:29;;;;;;;25.75;10.15;;;;;;;4.64;100.00;99824.72;5042100;28;20028;-59
2022/01/18 06:20:55;;;;;;;30.45;11.23;;;;;;;4.29;100.00;99836.31;5041453;28;20049;-59
2022/01/18 06:23:20;;;;;;;26.10;9.23;;;;;;;4.63;100.00;99832.44;5041716;28;20553;-60
2022/01/18 06:25:46;;;;;;;30.30;9.10;;;;;;;4.65;100.00;99835.94;5041374;28;20044;-60
2022/01/18 06:28:11;;;;;;;26.33;8.75;;;;;;;4.71;100.00;99841.16;5041582;28;20044;-60
2022/01/18 06:30:36;;;;;;;24.38;8.45;;;;;;;4.90;100.00;99847.41;5041266;28;20041;-59
2022/01/18 06:33:02;;;;;;;31.00;9.60;;;;;;;4.83;100.00;99835.25;5041486;28;20025;-58
2022/01/18 06:35:28;;;;;;;25.08;7.75;;;;;;;4.93;100.00;99846.59;5041403;28;20417;-59
2022/01/18 06:37:53;;;;;;;16.85;5.07;;;;;;;5.43;100.00;99847.97;5041665;28;20044;-60
2022/01/18 06:40:19;;;;;;;23.83;8.38;;;;;;;5.47;100.00;99849.72;5041006;28;20025;-58
2022/01/18 06:42:44;;;;;;;22.17;7.15;;;;;;;5.04;100.00;99845.00;5041325;28;20086;-60
2022/01/18 06:45:10;;;;;;;18.45;6.93;;;;;;;5.07;100.00;99860.53;5041084;28;20025;-60
2022/01/18 06:47:37;;;;;;;20.17;8.18;;;;;;;5.18;100.00;99864.13;5041250;28;20028;-60
2022/01/18 06:50:04;;;;;;;14.77;4.30;;;;;;;5.73;100.00;99863.75;5041499;28;20115;-61
2022/01/18 06:52:29;;;;;;;23.40;6.95;;;;;;;5.48;100.00;99859.25;5040916;28;20036;-59
2022/01/18 06:54:55;;;;;;;39.60;10.73;;;;;;;4.65;100.00;99848.88;5041280;28;20064;-59
2022/01/18 06:57:20;;;;;;;34.25;11.27;;;;;;;4.34;100.00;99855.34;5040902;28;20145;-61
2022/01/18 06:59:45;;;;;;;29.45;9.63;;;;;;;4.73;100.00;99864.47;5041269;28;20059;-60
2022/01/18 07:02:11;;;;;;;19.90;6.15;;;;;;;4.43;100.00;99861.50;5040597;28;20107;-60
2022/01/18 07:04:36;;;;;;;27.35;8.68;;;;;;;4.81;100.00;99874.03;5041206;28;20021;-59
2022/01/18 07:07:03;;;;;;;28.42;9.27;;;;;;;4.44;100.00;99868.38;5040562;28;20139;-60
2022/01/18 07:09:28;;;;;;;29.15;9.60;;;;;;;4.30;100.00;99875.09;5041081;28;20024;-61
2022/01/18 07:11:55;;;;;;;31.63;10.60;;;;;;;3.97;100.00;99868.59;5040119;28;20043;-59
2022/01/18 07:14:21;;;;;;;38.38;10.82;;;;;;;4.05;100.00;99872.13;5040995;28;20124;-59
2022/01/18 07:16:47;;;;;;;29.70;9.88;;;;;;;3.90;100.00;99876.19;5040624;28;20041;-61
2022/01/18 07:19:12;;;;;;;33.13;9.55;;;;;;;4.05;100.00;99882.47;5041263;28;20694;-59
2022/01/18 07:21:38;;;;;;;44.58;10.48;;;;;;;3.53;100.00;99881.63;5040595;28;20306;-59
2022/01/18 07:24:06;;;;;;;29.73;10.02;;;;;;;3.89;100.00;99889.94;5040588;28;20032;-60
2022/01/18 07:26:32;;;;;;;34.38;11.30;;;;;;;3.75;100.00;99884.53;5039862;28;20036;-59
2022/01/18 07:28:58;;;;;;;42.13;11.00;;;;;;;3.88;100.00;99902.00;5040753;28;20037;-60
2022/01/18 07:31:23;;;;;;;37.40;9.95;;;;;;;3.67;100.00;99903.34;5040032;28;20046;-59
2022/01/18 07:33:49;;;;;;;45.25;12.15;;;;;;;3.64;100.00;99903.31;5040805;28;20035;-59
2022/01/18 07:36:14;;;;;;;36.35;13.30;;;;;;;3.93;100.00;99909.81;5040084;28;20065;-60
2022/01/18 07:38:40;;;;;;;38.60;13.02;;;;;;;4.22;100.00;99915.44;5022593;28;20021;-60
2022/01/18 07:41:05;;;;;;;37.17;11.50;;;;;;;4.29;100.00;99919.84;5039767;28;20041;-59
2022/01/18 07:43:30;;;;;;;33.78;11.07;;;;;;;4.40;100.00;99923.47;5022476;28;20394;-61
2022/01/18 07:45:56;;;;;;;34.92;11.00;;;;;;;4.41;100.00;99917.47;5039363;28;20033;-60
2022/01/18 07:48:23;;;;;;;32.97;11.32;;;;;;;4.15;100.00;99923.94;5037426;28;20025;-59
2022/01/18 07:50:53;;;;;;;32.55;11.75;;;;;;;3.66;100.00;99931.75;5036475;28;20048;-58
2022/01/18 07:53:19;;;;;;;33.25;11.60;;;;;;;4.31;100.00;99928.50;5039857;28;20021;-60
2022/01/18 07:55:44;;;;;;;37.75;10.77;;;;;;;4.17;100.00;99929.97;5039298;28;20044;-60
2022/01/18 07:58:10;;;;;;;31.08;10.50;;;;;;;4.66;100.00;99935.88;5040173;28;20032;-59
2022/01/18 08:00:35;;;;;;;33.35;11.50;;;;;;;4.54;100.00;99936.59;5039084;28;20114;-60
2022/01/18 08:03:01;;;;;;;39.42;10.65;;;;;;;4.59;100.00;99929.75;5039140;28;20040;-60
2022/01/18 08:05:26;;;;;;;40.70;10.50;;;;;;;4.55;100.00;99927.13;5039008;28;20029;-60
2022/01/18 08:07:51;;;;;;;30.13;9.93;;;;;;;4.91;100.00;99926.75;5040478;28;20040;-59
2022/01/18 08:10:18;;;;;;;40.58;10.98;;;;;;;4.63;100.00;99921.22;5038903;28;20017;-59
2022/01/18 08:12:45;;;;;;;27.50;10.38;;;;;;;4.46;100.00;99935.59;5039579;28;20474;-59
2022/01/18 08:15:15;;;;;;;26.40;10.27;;;;;;;4.78;100.00;99924.88;5039623;28;20016;-60
2022/01/18 08:17:43;;;;;;;28.40;9.57;;;;;;;4.87;100.00;99930.16;5039894;28;20025;-59
2022/01/18 08:20:13;;;;;;;41.97;11.02;;;;;;;5.03;100.00;99924.28;5039575;28;20135;-61
2022/01/18 08:22:42;;;;;;;26.77;9.10;;;;;;;5.01;100.00;99927.72;5040161;28;20083;-59
2022/01/18 08:25:08;;;;;;;28.88;9.40;;;;;;;5.13;100.00;99927.88;5039188;28;20029;-59
2022/01/18 08:27:33;;;;;;;25.25;9.05;;;;;;;4.97;100.00;99932.00;5040231;28;20047;-58
2022/01/18 08:29:58;;;;;;;24.42;9.38;;;;;;;5.08;100.00;99928.69;5040161;28;20092;-59
2022/01/18 08:32:24;;;;;;;30.10;9.13;;;;;;;5.03;100.00;99936.38;5039309;28;20071;-61
2022/01/18 08:34:49;;;;;;;26.52;8.77;;;;;;;5.22;100.00;99938.34;5039531;28;20110;-59
2022/01/18 08:37:15;;;;;;;24.23;8.30;;;;;;;4.93;100.00;99939.72;5039419;28;20037;-58
2022/01/18 08:39:40;;;;;;;22.98;8.50;;;;;;;5.39;100.00;99942.84;5039822;28;20119;-59
2022/01/18 08:42:06;;;;;;;20.08;7.95;;;;;;;5.40;100.00;99936.78;5039006;28;20056;-60
2022/01/18 08:44:32;;;;;;;25.23;7.82;;;;;;;5.30;100.00;99940.16;5039618;28;20032;-60
2022/01/18 08:46:57;;;;;;;21.30;7.70;;;;;;;5.12;100.00;99941.66;5039234;28;20122;-61
2022/01/18 08:49:22;;;;;;;27.92;7.80;;;;;;;5.82;100.00;99945.84;5039308;28;20035;-59
2022/01/18 08:51:48;;;;;;;22.95;6.97;;;;;;;5.59;100.00;99935.28;5039166;28;20473;-59
2022/01/18 08:54:13;;;;;;;23.90;8.10;;;;;;;5.76;100.00;99930.25;5039758;28;20094;-59
2022/01/18 08:56:39;;;;;;;21.33;7.60;;;;;;;5.66;100.00;99938.78;5037670;28;20067;-58
2022/01/18 08:59:04;;;;;;;21.58;6.75;;;;;;;5.46;100.00;99942.06;5039653;28;20212;-60
2022/01/18 09:01:29;;;;;;;21.40;6.72;;;;;;;5.28;100.00;99942.72;5038573;28;20066;-58
2022/01/18 09:03:55;;;;;;;20.90;7.28;;;;;;;5.81;100.00;99944.13;5039531;28;20037;-59
2022/01/18 09:06:22;;;;;;;19.60;5.63;;;;;;;5.74;100.00;99942.34;5038794;28;20824;-60
2022/01/18 09:08:55;;;;;;;20.30;6.28;;;;;;;5.70;100.00;99945.75;5039499;28;20028;-59
2022/01/18 09:11:23;;;;;;;23.80;6.28;;;;;;;5.56;100.00;99948.19;5038348;28;20124;-60
2022/01/18 09:13:48;;;;;;;20.67;6.53;;;;;;;5.93;100.00;99949.41;5038666;28;20095;-59
2022/01/18 09:16:14;;;;;;;20.60;6.45;;;;;;;5.65;100.00;99948.28;5038906;28;20045;-59
2022/01/18 09:18:39;;;;;;;17.88;6.65;;;;;;;5.46;100.00;99948.94;5042978;28;20037;-60
2022/01/18 09:21:04;;;;;;;19.48;6.45;;;;;;;5.78;100.00;99954.44;5041640;28;20045;-59
2022/01/18 09:23:30;;;;;;;21.40;6.97;;;;;;;5.64;100.00;99950.84;5042895;28;20391;-58
2022/01/18 09:25:55;;;;;;;17.15;6.07;;;;;;;5.55;100.00;99956.78;5042454;28;20048;-59
2022/01/18 09:28:21;;;;;;;18.02;6.03;;;;;;;5.70;100.00;99956.13;5043259;28;20032;-59
2022/01/18 09:30:46;;;;;;;16.83;5.78;;;;;;;5.88;100.00;99956.28;5042401;28;20442;-60
2022/01/18 09:33:11;;;;;;;19.08;5.88;;;;;;;6.68;100.00;99956.91;5043233;28;20110;-59
2022/01/18 09:35:38;;;;;;;19.83;6.28;;;;;;;6.79;100.00;99959.59;5042018;28;20156;-59
2022/01/18 09:38:04;;;;;;;16.67;5.38;;;;;;;6.81;100.00;99962.19;5042677;28;20059;-59
2022/01/18 09:40:37;;;;;;;17.05;5.38;;;;;;;6.27;100.00;99959.25;5042011;28;20060;-61
2022/01/18 09:43:09;;;;;;;21.40;5.63;;;;;;;6.77;100.00;99961.31;5042432;28;20522;-60
2022/01/18 09:45:35;;;;;;;17.83;5.67;;;;;;;7.00;100.00;99964.00;5042008;28;20037;-59
2022/01/18 09:48:02;;;;;;;16.63;5.63;;;;;;;6.42;100.00;99971.44;5042570;28;20147;-59
2022/01/18 09:50:31;;;;;;;17.45;5.63;;;;;;;6.79;100.00;99971.69;5041795;28;20035;-59
2022/01/18 09:52:58;;;;;;;21.80;5.90;;;;;;;6.61;100.00;99970.69;5042401;28;20136;-61
2022/01/18 09:55:26;;;;;;;16.60;5.22;;;;;;;6.66;100.00;99969.00;5041630;28;20036;-58
2022/01/18 09:57:53;;;;;;;20.73;5.45;;;;;;;6.27;100.00;99975.66;5042714;28;20360;-59
2022/01/18 10:00:20;;;;;;;19.63;6.40;;;;;;;6.37;100.00;99967.06;5042144;28;20029;-59
2022/01/18 10:02:46;;;;;;;22.38;6.25;;;;;;;6.36;100.00;99969.69;5042019;28;20131;-59
2022/01/18 10:05:30;;;;;;;19.27;6.40;;;;;;;6.77;100.00;99970.81;5041959;28;20020;-60
2022/01/18 10:08:00;;;;;;;17.63;6.07;;;;;;;7.18;100.00;99977.94;5054297;28;20021;-59
2022/01/18 10:10:41;;;;;;;19.40;6.00;;;;;;;7.31;100.00;99969.34;5041716;28;20020;-58
2022/01/18 10:13:08;;;;;;;15.55;5.38;;;;;;;7.62;100.00;99959.91;5040176;28;20685;-58
2022/01/18 10:15:34;;;;;;;20.08;6.00;;;;;;;7.57;100.00;99960.75;5041206;28;20051;-59
2022/01/18 10:18:07;;;;;;;15.38;5.65;;;;;;;7.25;100.00;99953.75;5042317;28;20028;-59
2022/01/18 10:20:47;;;;;;;15.15;5.28;;;;;;;7.31;100.00;99964.13;5041177;28;20128;-60
2022/01/18 10:23:23;;;;;;;16.42;5.18;;;;;;;8.05;100.00;99954.78;5041691;28;20126;-59
2022/01/18 10:25:49;;;;;;;13.07;5.25;;;;;;;7.62;100.00;99951.25;5040998;28;20650;-59
2022/01/18 10:28:29;;;;;;;14.70;5.07;;;;;;;7.25;100.00;99953.75;5041597;28;20683;-61
2022/01/18 10:30:55;;;;;;;16.23;5.22;;;;;;;7.43;100.00;99953.81;5040867;28;20032;-58
2022/01/18 10:33:27;;;;;;;14.48;4.82;;;;;;;7.32;100.00;99960.69;5041523;28;20025;-59
2022/01/18 10:36:11;;;;;;;16.92;4.78;;;;;;;7.78;100.00;99950.41;5040360;28;20048;-61
2022/01/18 10:38:50;;;;;;;15.55;5.25;;;;;;;8.11;100.00;99943.53;5041193;28;20417;-59
2022/01/18 10:41:28;;;;;;;14.60;4.75;;;;;;;7.64;100.00;99937.41;5040990;28;20049;-59
2022/01/18 10:44:03;;;;;;;12.27;3.90;;;;;;;7.79;100.00;99939.16;5041751;28;20017;-59
2022/01/18 10:46:37;;;;;;;14.07;3.83;;;;;;;7.37;100.00;99940.81;5041026;28;20044;-60
2022/01/18 10:49:04;;;;;;;12.68;4.13;;;;;;;7.75;100.00;99939.16;5041324;28;20036;-60
2022/01/18 10:51:32;;;;;;;11.77;4.25;;;;;;;7.34;100.00;99940.78;5040805;28;20560;-59
2022/01/18 10:54:01;;;;;;;12.15;4.25;;;;;;;8.13;100.00;99940.94;5039356;28;20518;-59
2022/01/18 10:56:37;;;;;;;14.13;4.10;;;;;;;7.89;100.00;99933.13;5041041;28;20072;-59
2022/01/18 10:59:02;;;;;;;12.77;3.85;;;;;;;8.40;100.00;99932.22;5039777;28;20406;-59
2022/01/18 11:01:28;;;;;;;13.50;4.45;;;;;;;7.95;100.00;99931.38;5039800;28;20099;-59
2022/01/18 11:04:15;;;;;;;13.23;3.72;;;;;;;8.24;100.00;99934.84;5040704;28;20087;-60
2022/01/18 11:06:55;;;;;;;12.23;4.38;;;;;;;7.87;100.00;99940.03;5040228;28;20033;-60
2022/01/18 11:09:21;;;;;;;12.27;4.20;;;;;;;7.25;100.00;99927.78;5041094;28;20047;-60
2022/01/18 11:11:48;;;;;;;12.00;3.50;;;;;;;7.50;100.00;99926.13;5039949;28;20468;-59
2022/01/18 11:14:17;;;;;;;10.57;3.67;;;;;;;7.93;100.00;99928.78;5040474;28;20027;-58
2022/01/18 11:16:44;;;;;;;12.20;3.80;;;;;;;7.82;100.00;99926.16;5039902;28;20473;-59
2022/01/18 11:21:47;;;;;;;12.80;3.90;;;;;;;7.88;100.00;99921.00;5039807;28;20613;-58
2022/01/18 11:24:15;;;;;;;15.38;4.20;;;;;;;7.59;100.00;99917.47;5039780;28;20422;-60
2022/01/18 11:26:42;;;;;;;10.20;3.53;;;;;;;7.37;100.00;99922.63;5038780;28;20132;-59
2022/01/18 11:29:09;;;;;;;11.55;3.30;;;;;;;7.45;100.00;99915.72;5040717;28;20028;-60
2022/01/18 11:31:35;;;;;;;13.35;3.75;;;;;;;7.59;100.00;99922.66;5039391;28;20041;-59
2022/01/18 11:34:01;;;;;;;12.95;3.30;;;;;;;7.34;100.00;99920.03;5040599;28;20027;-58
2022/01/18 11:36:33;;;;;;;8.60;3.03;;;;;;;7.80;100.00;99914.91;5040135;28;20136;-57
2022/01/18 11:39:03;;;;;;;8.65;3.20;;;;;;;8.12;100.00;99916.66;5040370;28;20473;-58
2022/01/18 11:41:32;;;;;;;10.25;3.40;;;;;;;7.84;100.00;99911.44;5038726;28;20076;-58
2022/01/18 11:44:09;;;;;;;12.50;3.20;;;;;;;7.88;100.00;99926.19;5038725;28;20074;-58
2022/01/18 11:46:40;;;;;;;12.07;3.22;;;;;;;7.99;100.00;99913.19;5039694;28;20339;-59
2022/01/18 11:49:15;;;;;;;12.32;3.30;;;;;;;7.57;100.00;99912.28;5039666;28;20068;-60
2022/01/18 11:51:48;;;;;;;12.18;3.33;;;;;;;7.57;100.00;99916.59;5039716;28;20246;-60
2022/01/18 11:57:27;;;;;;;13.15;3.58;;;;;;;7.98;100.00;99910.63;5039411;28;20052;-61
2022/01/18 12:00:00;;;;;;;11.52;2.50;;;;;;;7.58;100.00;99915.75;5040153;28;20020;-59
2022/01/18 12:02:34;;;;;;;11.88;3.00;;;;;;;7.91;100.00;99915.78;5039128;28;20139;-61
2022/01/18 12:05:06;;;;;;;10.57;3.05;;;;;;;7.94;100.00;99919.25;5040498;28;20017;-62
2022/01/18 12:07:38;;;;;;;8.73;3.00;;;;;;;7.55;100.00;99910.56;5039794;28;20052;-61
2022/01/18 12:10:27;;;;;;;9.10;2.93;;;;;;;7.45;100.00;99905.34;5039467;28;20309;-60
2022/01/18 12:12:55;;;;;;;9.80;2.45;;;;;;;8.00;100.00;99898.47;5039469;28;20546;-61
2022/01/18 12:15:23;;;;;;;9.82;2.63;;;;;;;7.98;100.00;99895.88;5040023;28;20070;-61
2022/01/18 12:17:49;;;;;;;8.73;2.60;;;;;;;7.82;100.00;99900.19;5039803;28;20059;-59
2022/01/18 12:20:32;;;;;;;12.65;3.13;;;;;;;7.22;100.00;99894.03;5040113;28;20063;-60
2022/01/18 12:23:11;;;;;;;8.55;2.78;;;;;;;7.69;100.00;99894.13;5039937;28;20032;-59
2022/01/18 12:26:13;;;;;;;11.23;3.42;;;;;;;7.67;100.00;99880.25;5037382;28;20044;-58
2022/01/18 12:34:47;;;;;;;11.13;2.72;;;;;;;7.45;100.00;99879.38;5039511;28;20059;-60
2022/01/18 12:37:24;;;;;;;8.25;2.55;;;;;;;7.64;100.00;99879.41;5038875;28;20602;-59
2022/01/18 12:39:49;;;;;;;10.32;2.85;;;;;;;7.59;100.00;99879.41;5039570;28;20498;-58
2022/01/18 12:44:20;;;;;;;9.13;2.60;;;;;;;7.40;100.00;99875.03;5038929;28;20060;-61
2022/01/18 12:45:07;;;;;;;9.20;2.67;;;;;;;7.48;100.00;99874.19;5039250;28;20037;-61
2022/01/18 12:47:35;;;;;;;10.95;3.20;;;;;;;8.52;100.00;99875.03;5039105;28;20098;-61
2022/01/18 12:50:02;;;;;;;12.88;2.75;;;;;;;7.26;100.00;99864.59;5039563;28;20372;-61
2022/01/18 12:52:47;;;;;;;11.90;3.10;;;;;;;8.11;100.00;99868.16;5040649;28;20037;-61